sensor_id;sensor_type;location;lat;lon;timestamp;pressure;altitude;pressure_sealevel;temperature;humidity
27429;BME280;14881;48.092;11.574;2023-03-16T00:36:20;95827.41;;;-0.27;100.00
27429;BME280;14881;48.092;11.574;2023-03-16T00:38:51;95820.47;;;-0.35;100.00
27429;BME280;14881;48.092;11.574;2023-03-16T00:41:25;95822.34;;;-0.35;100.00
27429;BME280;14881;48.092;11.574;2023-03-16T00:43:53;95816.78;;;-0.33;100.00
27429;BME280;14881;48.092;11.574;2023-03-16T00:46:31;95817.00;;;-0.35;100.00
27429;BME280;14881;48.092;11.574;2023-03-16T00:49:17;95821.75;;;-0.44;100.00
27429;BME280;14881;48.092;11.574;2023-03-16T00:51:54;95821.97;;;-0.45;100.00
27429;BME280;14881;48.092;11.574;2023-03-16T00:54:32;95824.91;;;-0.53;100.00
27429;BME280;14881;48.092;11.574;2023-03-16T00:57:14;95822.66;;;-0.56;100.00
27429;BME280;14881;48.092;11.574;2023-03-16T00:59:53;95820.81;;;-0.62;100.00
27429;BME280;14881;48.092;11.574;2023-03-16T01:02:27;95817.97;;;-0.67;100.00
27429;BME280;14881;48.092;11.574;2023-03-16T01:05:10;95828.47;;;-0.73;100.00
27429;BME280;14881;48.092;11.574;2023-03-16T01:08:03;95810.41;;;-0.77;100.00
27429;BME280;14881;48.092;11.574;2023-03-16T01:10:30;95826.22;;;-0.82;100.00
27429;BME280;14881;48.092;11.574;2023-03-16T01:13:10;95814.94;;;-0.84;100.00
27429;BME280;14881;48.092;11.574;2023-03-16T01:15:49;95821.09;;;-0.84;100.00
27429;BME280;14881;48.092;11.574;2023-03-16T01:18:17;95817.19;;;-0.81;100.00
27429;BME280;14881;48.092;11.574;2023-03-16T01:20:45;95809.59;;;-0.78;100.00
27429;BME280;14881;48.092;11.574;2023-03-16T01:23:37;95818.66;;;-0.85;100.00
27429;BME280;14881;48.092;11.574;2023-03-16T01:26:11;95818.28;;;-0.95;100.00
27429;BME280;14881;48.092;11.574;2023-03-16T01:28:43;95811.94;;;-1.01;100.00
27429;BME280;14881;48.092;11.574;2023-03-16T01:31:17;95809.06;;;-0.99;100.00
27429;BME280;14881;48.092;11.574;2023-03-16T01:33:52;95823.63;;;-1.02;100.00
27429;BME280;14881;48.092;11.574;2023-03-16T01:36:26;95819.13;;;-1.01;100.00
27429;BME280;14881;48.092;11.574;2023-03-16T01:39:01;95818.09;;;-1.00;100.00
27429;BME280;14881;48.092;11.574;2023-03-16T01:41:45;95817.72;;;-1.04;100.00
27429;BME280;14881;48.092;11.574;2023-03-16T01:44:17;95815.66;;;-1.09;100.00
27429;BME280;14881;48.092;11.574;2023-03-16T01:47:07;95811.16;;;-1.08;100.00
27429;BME280;14881;48.092;11.574;2023-03-16T01:49:36;95799.88;;;-1.10;100.00
27429;BME280;14881;48.092;11.574;2023-03-16T01:52:16;95800.28;;;-1.07;100.00
27429;BME280;14881;48.092;11.574;2023-03-16T01:54:57;95796.41;;;-1.17;100.00
27429;BME280;14881;48.092;11.574;2023-03-16T01:57:46;95798.69;;;-1.27;100.00
27429;BME280;14881;48.092;11.574;2023-03-16T02:00:17;95796.66;;;-1.32;100.00
27429;BME280;14881;48.092;11.574;2023-03-16T02:03:14;95799.72;;;-1.35;100.00
27429;BME280;14881;48.092;11.574;2023-03-16T02:05:56;95797.47;;;-1.38;100.00
27429;BME280;14881;48.092;11.574;2023-03-16T02:08:32;95792.38;;;-1.39;100.00
27429;BME280;14881;48.092;11.574;2023-03-16T02:11:13;95794.22;;;-1.40;100.00
27429;BME280;14881;48.092;11.574;2023-03-16T02:14:13;95800.38;;;-1.39;100.00
27429;BME280;14881;48.092;11.574;2023-03-16T02:16:41;95796.69;;;-1.45;100.00
27429;BME280;14881;48.092;11.574;2023-03-16T02:19:35;95797.69;;;-1.46;100.00
27429;BME280;14881;48.092;11.574;2023-03-16T02:22:21;95804.06;;;-1.60;100.00
27429;BME280;14881;48.092;11.574;2023-03-16T02:25:08;95798.94;;;-1.62;100.00
27429;BME280;14881;48.092;11.574;2023-03-16T02:27:57;95798.75;;;-1.67;100.00
27429;BME280;14881;48.092;11.574;2023-03-16T02:30:36;95791.81;;;-1.74;100.00
27429;BME280;14881;48.092;11.574;2023-03-16T02:33:07;95794.66;;;-1.69;100.00
27429;BME280;14881;48.092;11.574;2023-03-16T02:35:48;95790.34;;;-1.70;100.00
27429;BME280;14881;48.092;11.574;2023-03-16T02:38:23;95789.13;;;-1.74;100.00
27429;BME280;14881;48.092;11.574;2023-03-16T02:41:17;95795.69;;;-1.77;100.00
27429;BME280;14881;48.092;11.574;2023-03-16T02:44:01;95790.16;;;-1.82;100.00
27429;BME280;14881;48.092;11.574;2023-03-16T02:47:32;95798.75;;;-1.93;100.00
27429;BME280;14881;48.092;11.574;2023-03-16T02:50:08;95797.94;;;-2.00;100.00
27429;BME280;14881;48.092;11.574;2023-03-16T02:52:55;95793.66;;;-2.08;100.00
27429;BME280;14881;48.092;11.574;2023-03-16T02:55:23;95802.22;;;-2.13;100.00
27429;BME280;14881;48.092;11.574;2023-03-16T02:58:03;95803.88;;;-2.12;100.00
27429;BME280;14881;48.092;11.574;2023-03-16T03:00:37;95796.28;;;-2.15;100.00
27429;BME280;14881;48.092;11.574;2023-03-16T03:03:06;95797.91;;;-2.20;100.00
27429;BME280;14881;48.092;11.574;2023-03-16T03:05:35;95792.78;;;-2.28;100.00
27429;BME280;14881;48.092;11.574;2023-03-16T03:08:56;95794.22;;;-2.32;100.00
27429;BME280;14881;48.092;11.574;2023-03-16T03:11:24;95789.75;;;-2.25;100.00
27429;BME280;14881;48.092;11.574;2023-03-16T03:13:54;95795.44;;;-2.22;100.00
27429;BME280;14881;48.092;11.574;2023-03-16T03:16:22;95791.78;;;-2.21;100.00
27429;BME280;14881;48.092;11.574;2023-03-16T03:18:52;95783.59;;;-2.19;100.00
27429;BME280;14881;48.092;11.574;2023-03-16T03:21:26;95781.53;;;-2.24;100.00
27429;BME280;14881;48.092;11.574;2023-03-16T03:23:54;95784.41;;;-2.32;100.00
27429;BME280;14881;48.092;11.574;2023-03-16T03:26:28;95784.78;;;-2.35;100.00
27429;BME280;14881;48.092;11.574;2023-03-16T03:29:32;95788.88;;;-2.39;100.00
27429;BME280;14881;48.092;11.574;2023-03-16T03:32:00;95790.91;;;-2.48;100.00
27429;BME280;14881;48.092;11.574;2023-03-16T03:34:36;95787.22;;;-2.53;100.00
27429;BME280;14881;48.092;11.574;2023-03-16T03:37:13;95787.00;;;-2.52;100.00
27429;BME280;14881;48.092;11.574;2023-03-16T03:39:56;95786.41;;;-2.47;100.00
27429;BME280;14881;48.092;11.574;2023-03-16T03:42:24;95788.47;;;-2.42;100.00
27429;BME280;14881;48.092;11.574;2023-03-16T03:44:58;95782.94;;;-2.41;100.00
27429;BME280;14881;48.092;11.574;2023-03-16T03:47:29;95791.34;;;-2.37;100.00
27429;BME280;14881;48.092;11.574;2023-03-16T03:49:58;95786.84;;;-2.30;100.00
27429;BME280;14881;48.092;11.574;2023-03-16T03:52:29;95782.53;;;-2.25;100.00
27429;BME280;14881;48.092;11.574;2023-03-16T03:55:00;95787.47;;;-2.15;100.00
27429;BME280;14881;48.092;11.574;2023-03-16T03:57:28;95783.19;;;-2.16;100.00
27429;BME280;14881;48.092;11.574;2023-03-16T03:59:58;95784.63;;;-2.14;100.00
27429;BME280;14881;48.092;11.574;2023-03-16T04:06:12;95776.63;;;-2.14;100.00
27429;BME280;14881;48.092;11.574;2023-03-16T04:08:45;95773.75;;;-2.19;100.00
27429;BME280;14881;48.092;11.574;2023-03-16T04:11:14;95776.81;;;-2.22;100.00
27429;BME280;14881;48.092;11.574;2023-03-16T04:13:42;95774.38;;;-2.23;100.00
27429;BME280;14881;48.092;11.574;2023-03-16T04:16:10;95773.56;;;-2.30;100.00
27429;BME280;14881;48.092;11.574;2023-03-16T04:18:45;95775.38;;;-2.37;100.00
27429;BME280;14881;48.092;11.574;2023-03-16T04:21:15;95773.13;;;-2.40;100.00
27429;BME280;14881;48.092;11.574;2023-03-16T04:23:51;95777.44;;;-2.46;100.00
27429;BME280;14881;48.092;11.574;2023-03-16T04:26:25;95777.81;;;-2.49;100.00
27429;BME280;14881;48.092;11.574;2023-03-16T04:29:08;95782.09;;;-2.55;100.00
27429;BME280;14881;48.092;11.574;2023-03-16T04:31:42;95782.69;;;-2.59;100.00
27429;BME280;14881;48.092;11.574;2023-03-16T04:34:19;95788.44;;;-2.62;100.00
27429;BME280;14881;48.092;11.574;2023-03-16T04:36:58;95793.13;;;-2.64;100.00
27429;BME280;14881;48.092;11.574;2023-03-16T04:39:51;95798.25;;;-2.56;100.00
27429;BME280;14881;48.092;11.574;2023-03-16T04:42:43;95798.06;;;-2.55;100.00
27429;BME280;14881;48.092;11.574;2023-03-16T04:45:49;95793.34;;;-2.53;100.00
27429;BME280;14881;48.092;11.574;2023-03-16T04:48:24;95782.72;;;-2.53;100.00
27429;BME280;14881;48.092;11.574;2023-03-16T04:50:55;95781.91;;;-2.53;100.00
27429;BME280;14881;48.092;11.574;2023-03-16T04:53:37;95771.66;;;-2.56;100.00
27429;BME280;14881;48.092;11.574;2023-03-16T04:56:34;95773.31;;;-2.62;100.00
27429;BME280;14881;48.092;11.574;2023-03-16T04:59:10;95782.25;;;-2.69;100.00
27429;BME280;14881;48.092;11.574;2023-03-16T05:01:46;95782.66;;;-2.72;100.00
27429;BME280;14881;48.092;11.574;2023-03-16T05:04:54;95778.75;;;-2.76;100.00
27429;BME280;14881;48.092;11.574;2023-03-16T05:07:28;95772.22;;;-2.74;100.00
27429;BME280;14881;48.092;11.574;2023-03-16T05:09:57;95775.31;;;-2.70;100.00
27429;BME280;14881;48.092;11.574;2023-03-16T05:12:24;95760.38;;;-2.71;100.00
27429;BME280;14881;48.092;11.574;2023-03-16T05:15:20;95765.69;;;-2.78;100.00
27429;BME280;14881;48.092;11.574;2023-03-16T05:17:48;95755.66;;;-2.76;100.00
27429;BME280;14881;48.092;11.574;2023-03-16T05:20:16;95756.09;;;-2.79;100.00
27429;BME280;14881;48.092;11.574;2023-03-16T05:23:04;95750.34;;;-2.83;100.00
27429;BME280;14881;48.092;11.574;2023-03-16T05:25:38;95757.50;;;-2.83;100.00
27429;BME280;14881;48.092;11.574;2023-03-16T05:28:26;95757.28;;;-2.82;100.00
27429;BME280;14881;48.092;11.574;2023-03-16T05:31:02;95752.41;;;-2.78;100.00
27429;BME280;14881;48.092;11.574;2023-03-16T05:33:38;95752.00;;;-2.68;100.00
27429;BME280;14881;48.092;11.574;2023-03-16T05:36:21;95754.03;;;-2.70;100.00
27429;BME280;14881;48.092;11.574;2023-03-16T05:42:32;95757.56;;;-2.50;100.00
27429;BME280;14881;48.092;11.574;2023-03-16T05:45:10;95749.78;;;-2.38;100.00
27429;BME280;14881;48.092;11.574;2023-03-16T05:47:56;95750.84;;;-2.26;100.00
27429;BME280;14881;48.092;11.574;2023-03-16T05:50:24;95754.31;;;-2.19;100.00
27429;BME280;14881;48.092;11.574;2023-03-16T05:53:02;95743.66;;;-2.06;100.00
27429;BME280;14881;48.092;11.574;2023-03-16T05:55:36;95748.81;;;-1.98;100.00
27429;BME280;14881;48.092;11.574;2023-03-16T05:58:24;95744.50;;;-1.92;100.00
27429;BME280;14881;48.092;11.574;2023-03-16T06:01:02;95750.22;;;-1.82;100.00
27429;BME280;14881;48.092;11.574;2023-03-16T06:03:39;95752.44;;;-1.72;100.00
27429;BME280;14881;48.092;11.574;2023-03-16T06:06:18;95757.16;;;-1.61;100.00
27429;BME280;14881;48.092;11.574;2023-03-16T06:09:05;95757.34;;;-1.50;100.00
27429;BME280;14881;48.092;11.574;2023-03-16T06:11:58;95741.75;;;-1.46;100.00
27429;BME280;14881;48.092;11.574;2023-03-16T06:14:27;95748.28;;;-1.35;100.00
27429;BME280;14881;48.092;11.574;2023-03-16T06:17:08;95750.31;;;-1.31;100.00
27429;BME280;14881;48.092;11.574;2023-03-16T06:19:36;95749.06;;;-1.22;100.00
27429;BME280;14881;48.092;11.574;2023-03-16T06:22:04;95750.47;;;-1.06;100.00
27429;BME280;14881;48.092;11.574;2023-03-16T06:24:37;95759.63;;;-0.95;100.00
27429;BME280;14881;48.092;11.574;2023-03-16T06:27:35;95764.88;;;-0.76;100.00
27429;BME280;14881;48.092;11.574;2023-03-16T06:30:36;95747.94;;;-0.56;100.00
27429;BME280;14881;48.092;11.574;2023-03-16T06:33:09;95753.19;;;-0.37;100.00
27429;BME280;14881;48.092;11.574;2023-03-16T06:35:37;95759.44;;;-0.24;100.00
27429;BME280;14881;48.092;11.574;2023-03-16T06:38:11;95761.63;;;-0.15;100.00
27429;BME280;14881;48.092;11.574;2023-03-16T06:40:45;95763.63;;;-0.04;100.00
27429;BME280;14881;48.092;11.574;2023-03-16T06:43:12;95758.41;;;0.02;100.00
27429;BME280;14881;48.092;11.574;2023-03-16T06:45:45;95764.13;;;0.12;100.00
27429;BME280;14881;48.092;11.574;2023-03-16T06:58:04;95751.44;;;0.50;100.00
27429;BME280;14881;48.092;11.574;2023-03-16T07:00:32;95760.63;;;0.54;100.00
27429;BME280;14881;48.092;11.574;2023-03-16T07:03:06;95759.69;;;0.67;100.00
27429;BME280;14881;48.092;11.574;2023-03-16T07:05:34;95753.31;;;0.68;100.00
27429;BME280;14881;48.092;11.574;2023-03-16T07:08:01;95756.44;;;0.83;100.00
27429;BME280;14881;48.092;11.574;2023-03-16T07:10:30;95744.19;;;0.94;100.00
27429;BME280;14881;48.092;11.574;2023-03-16T07:12:59;95736.91;;;1.01;100.00
27429;BME280;14881;48.092;11.574;2023-03-16T07:15:27;95736.50;;;1.16;100.00
27429;BME280;14881;48.092;11.574;2023-03-16T07:17:55;95737.34;;;1.16;100.00
27429;BME280;14881;48.092;11.574;2023-03-16T07:20:24;95730.69;;;1.37;100.00
27429;BME280;14881;48.092;11.574;2023-03-16T07:22:54;95719.50;;;1.40;100.00
27429;BME280;14881;48.092;11.574;2023-03-16T07:25:23;95728.94;;;1.43;100.00
27429;BME280;14881;48.092;11.574;2023-03-16T07:27:51;95736.16;;;1.42;100.00
27429;BME280;14881;48.092;11.574;2023-03-16T07:30:19;95722.03;;;1.53;100.00
27429;BME280;14881;48.092;11.574;2023-03-16T07:32:46;95724.22;;;1.56;100.00
27429;BME280;14881;48.092;11.574;2023-03-16T07:35:19;95727.78;;;1.80;100.00
27429;BME280;14881;48.092;11.574;2023-03-16T07:37:48;95722.22;;;1.93;100.00
27429;BME280;14881;48.092;11.574;2023-03-16T07:40:19;95733.22;;;2.03;100.00
27429;BME280;14881;48.092;11.574;2023-03-16T07:42:47;95736.25;;;2.07;100.00
27429;BME280;14881;48.092;11.574;2023-03-16T07:45:15;95732.50;;;2.08;100.00
27429;BME280;14881;48.092;11.574;2023-03-16T07:47:43;95731.72;;;2.19;100.00
27429;BME280;14881;48.092;11.574;2023-03-16T07:50:11;95733.72;;;2.24;100.00
27429;BME280;14881;48.092;11.574;2023-03-16T07:52:41;95732.66;;;2.36;100.00
27429;BME280;14881;48.092;11.574;2023-03-16T07:55:10;95730.94;;;2.42;100.00
27429;BME280;14881;48.092;11.574;2023-03-16T07:57:39;95736.97;;;2.49;100.00
27429;BME280;14881;48.092;11.574;2023-03-16T08:00:09;95741.16;;;2.68;100.00
27429;BME280;14881;48.092;11.574;2023-03-16T08:02:37;95737.31;;;2.76;100.00
27429;BME280;14881;48.092;11.574;2023-03-16T08:05:05;95737.53;;;2.86;100.00
27429;BME280;14881;48.092;11.574;2023-03-16T08:07:35;95746.28;;;2.70;100.00
27429;BME280;14881;48.092;11.574;2023-03-16T08:10:04;95748.88;;;2.76;100.00
27429;BME280;14881;48.092;11.574;2023-03-16T08:12:55;95754.69;;;2.85;100.00
27429;BME280;14881;48.092;11.574;2023-03-16T08:15:37;95751.41;;;2.83;100.00
27429;BME280;14881;48.092;11.574;2023-03-16T08:19:45;95759.28;;;3.13;100.00
27429;BME280;14881;48.092;11.574;2023-03-16T08:22:19;95758.56;;;3.29;100.00
27429;BME280;14881;48.092;11.574;2023-03-16T08:25:30;95761.22;;;3.29;100.00
27429;BME280;14881;48.092;11.574;2023-03-16T08:29:04;95741.59;;;3.69;100.00
27429;BME280;14881;48.092;11.574;2023-03-16T08:32:00;95758.00;;;3.84;100.00
27429;BME280;14881;48.092;11.574;2023-03-16T08:34:51;95753.91;;;3.81;100.00
27429;BME280;14881;48.092;11.574;2023-03-16T08:37:33;95755.31;;;3.84;100.00
27429;BME280;14881;48.092;11.574;2023-03-16T08:40:41;95745.28;;;3.63;100.00
27429;BME280;14881;48.092;11.574;2023-03-16T08:44:14;95746.25;;;3.73;100.00
27429;BME280;14881;48.092;11.574;2023-03-16T08:46:56;95743.53;;;4.02;100.00
27429;BME280;14881;48.092;11.574;2023-03-16T08:54:05;95744.13;;;4.54;100.00
27429;BME280;14881;48.092;11.574;2023-03-16T08:56:52;95735.78;;;4.72;100.00
27429;BME280;14881;48.092;11.574;2023-03-16T09:07:23;95731.53;;;4.93;100.00
27429;BME280;14881;48.092;11.574;2023-03-16T09:10:19;95730.13;;;4.90;100.00
27429;BME280;14881;48.092;11.574;2023-03-16T09:13:32;95727.59;;;5.22;100.00
27429;BME280;14881;48.092;11.574;2023-03-16T09:19:46;95727.97;;;5.53;100.00
27429;BME280;14881;48.092;11.574;2023-03-16T09:22:19;95721.56;;;5.59;100.00
27429;BME280;14881;48.092;11.574;2023-03-16T09:24:47;95731.84;;;5.40;100.00
27429;BME280;14881;48.092;11.574;2023-03-16T09:27:16;95726.75;;;5.66;100.00
27429;BME280;14881;48.092;11.574;2023-03-16T09:30:06;95728.50;;;5.55;100.00
27429;BME280;14881;48.092;11.574;2023-03-16T09:32:43;95728.31;;;5.35;100.00
27429;BME280;14881;48.092;11.574;2023-03-16T09:47:10;95724.97;;;5.98;100.00
27429;BME280;14881;48.092;11.574;2023-03-16T09:50:20;95726.56;;;6.58;100.00
27429;BME280;14881;48.092;11.574;2023-03-16T09:53:39;95725.06;;;6.77;100.00
27429;BME280;14881;48.092;11.574;2023-03-16T09:56:42;95721.72;;;7.02;100.00
27429;BME280;14881;48.092;11.574;2023-03-16T10:10:01;95714.34;;;7.45;100.00
27429;BME280;14881;48.092;11.574;2023-03-16T10:12:56;95719.16;;;7.32;100.00
27429;BME280;14881;48.092;11.574;2023-03-16T10:19:02;95710.31;;;7.52;100.00
27429;BME280;14881;48.092;11.574;2023-03-16T10:25:42;95693.47;;;8.38;100.00
27429;BME280;14881;48.092;11.574;2023-03-16T10:28:48;95709.66;;;8.94;100.00
27429;BME280;14881;48.092;11.574;2023-03-16T10:31:50;95693.38;;;9.04;100.00
27429;BME280;14881;48.092;11.574;2023-03-16T10:35:04;95686.09;;;9.64;100.00
27429;BME280;14881;48.092;11.574;2023-03-16T10:37:57;95666.41;;;9.43;100.00
27429;BME280;14881;48.092;11.574;2023-03-16T10:45:02;95678.88;;;9.93;100.00
27429;BME280;14881;48.092;11.574;2023-03-16T10:51:35;95667.75;;;10.39;100.00
27429;BME280;14881;48.092;11.574;2023-03-16T11:09:31;95649.28;;;11.18;100.00
27429;BME280;14881;48.092;11.574;2023-03-16T11:12:46;95647.06;;;10.72;100.00
27429;BME280;14881;48.092;11.574;2023-03-16T11:19:56;95643.13;;;10.83;100.00
27429;BME280;14881;48.092;11.574;2023-03-16T11:23:29;95630.72;;;11.01;100.00
27429;BME280;14881;48.092;11.574;2023-03-16T11:34:04;95617.28;;;11.33;100.00
27429;BME280;14881;48.092;11.574;2023-03-16T11:38:12;95620.75;;;11.39;100.00
27429;BME280;14881;48.092;11.574;2023-03-16T11:41:57;95613.75;;;11.33;100.00
27429;BME280;14881;48.092;11.574;2023-03-16T11:45:13;95612.50;;;11.01;100.00
27429;BME280;14881;48.092;11.574;2023-03-16T11:51:44;95600.03;;;11.99;100.00
27429;BME280;14881;48.092;11.574;2023-03-16T11:54:37;95589.38;;;12.03;100.00
27429;BME280;14881;48.092;11.574;2023-03-16T11:57:42;95586.59;;;12.40;100.00
27429;BME280;14881;48.092;11.574;2023-03-16T12:01:07;95574.88;;;12.07;100.00
27429;BME280;14881;48.092;11.574;2023-03-16T12:07:48;95571.28;;;12.85;100.00
27429;BME280;14881;48.092;11.574;2023-03-16T12:11:22;95569.78;;;12.93;100.00
27429;BME280;14881;48.092;11.574;2023-03-16T12:14:26;95562.72;;;12.92;97.20
27429;BME280;14881;48.092;11.574;2023-03-16T12:18:01;95556.56;;;12.86;89.82
27429;BME280;14881;48.092;11.574;2023-03-16T12:21:23;95555.94;;;12.76;98.70
27429;BME280;14881;48.092;11.574;2023-03-16T12:24:43;95539.91;;;13.29;96.50
27429;BME280;14881;48.092;11.574;2023-03-16T12:31:12;95539.13;;;13.65;88.28
27429;BME280;14881;48.092;11.574;2023-03-16T12:42:09;95532.50;;;13.79;90.26
27429;BME280;14881;48.092;11.574;2023-03-16T12:45:22;95529.66;;;13.84;84.53
27429;BME280;14881;48.092;11.574;2023-03-16T12:48:57;95520.41;;;13.58;81.53
27429;BME280;14881;48.092;11.574;2023-03-16T12:51:37;95528.19;;;13.65;79.50
27429;BME280;14881;48.092;11.574;2023-03-16T13:01:37;95521.00;;;13.33;66.68
27429;BME280;14881;48.092;11.574;2023-03-16T13:04:38;95517.66;;;13.08;73.47
27429;BME280;14881;48.092;11.574;2023-03-16T13:15:31;95517.56;;;12.45;81.39
27429;BME280;14881;48.092;11.574;2023-03-16T13:18:54;95514.25;;;12.75;77.46
27429;BME280;14881;48.092;11.574;2023-03-16T13:32:41;95495.25;;;12.29;72.20
27429;BME280;14881;48.092;11.574;2023-03-16T13:35:58;95504.91;;;12.35;76.16
27429;BME280;14881;48.092;11.574;2023-03-16T13:39:13;95502.72;;;12.65;73.86
27429;BME280;14881;48.092;11.574;2023-03-16T13:42:49;95505.16;;;12.94;71.33
27429;BME280;14881;48.092;11.574;2023-03-16T13:46:00;95496.06;;;12.98;69.25
27429;BME280;14881;48.092;11.574;2023-03-16T13:49:15;95498.78;;;13.26;69.75
27429;BME280;14881;48.092;11.574;2023-03-16T13:55:45;95485.56;;;14.53;68.87
27429;BME280;14881;48.092;11.574;2023-03-16T13:58:43;95481.41;;;16.33;57.49
27429;BME280;14881;48.092;11.574;2023-03-16T14:05:26;95458.94;;;16.48;53.62
27429;BME280;14881;48.092;11.574;2023-03-16T14:08:51;95455.28;;;19.70;44.13
27429;BME280;14881;48.092;11.574;2023-03-16T14:11:33;95442.19;;;20.67;39.24
27429;BME280;14881;48.092;11.574;2023-03-16T14:14:49;95451.19;;;19.52;41.00
27429;BME280;14881;48.092;11.574;2023-03-16T14:17:37;95453.81;;;18.18;42.59
27429;BME280;14881;48.092;11.574;2023-03-16T14:20:46;95461.25;;;16.38;43.81
27429;BME280;14881;48.092;11.574;2023-03-16T14:23:36;95467.22;;;15.10;49.21
27429;BME280;14881;48.092;11.574;2023-03-16T14:27:18;95457.38;;;17.35;44.06
27429;BME280;14881;48.092;11.574;2023-03-16T14:30:33;95463.34;;;16.87;43.89
27429;BME280;14881;48.092;11.574;2023-03-16T14:33:46;95465.84;;;15.39;48.34
27429;BME280;14881;48.092;11.574;2023-03-16T14:40:40;95469.16;;;14.53;50.93
27429;BME280;14881;48.092;11.574;2023-03-16T14:43:31;95464.16;;;14.55;51.97
27429;BME280;14881;48.092;11.574;2023-03-16T14:46:37;95459.50;;;14.24;51.46
27429;BME280;14881;48.092;11.574;2023-03-16T14:49:37;95451.84;;;14.66;52.61
27429;BME280;14881;48.092;11.574;2023-03-16T14:53:21;95458.94;;;13.83;50.82
27429;BME280;14881;48.092;11.574;2023-03-16T14:56:35;95450.75;;;12.75;53.53
27429;BME280;14881;48.092;11.574;2023-03-16T14:59:22;95467.03;;;11.93;59.09
27429;BME280;14881;48.092;11.574;2023-03-16T15:05:52;95470.97;;;11.49;67.69
27429;BME280;14881;48.092;11.574;2023-03-16T15:08:50;95467.03;;;11.41;67.45
27429;BME280;14881;48.092;11.574;2023-03-16T15:11:39;95469.34;;;11.48;73.26
27429;BME280;14881;48.092;11.574;2023-03-16T15:14:29;95465.47;;;11.35;72.93
27429;BME280;14881;48.092;11.574;2023-03-16T15:17:38;95456.88;;;11.79;70.45
27429;BME280;14881;48.092;11.574;2023-03-16T15:21:00;95438.94;;;12.52;64.34
27429;BME280;14881;48.092;11.574;2023-03-16T15:24:20;95440.94;;;12.05;63.83
27429;BME280;14881;48.092;11.574;2023-03-16T15:26:51;95454.63;;;11.68;65.88
27429;BME280;14881;48.092;11.574;2023-03-16T15:29:31;95458.25;;;11.26;66.25
27429;BME280;14881;48.092;11.574;2023-03-16T15:35:49;95449.19;;;10.74;75.80
27429;BME280;14881;48.092;11.574;2023-03-16T15:42:16;95442.19;;;10.49;79.96
27429;BME280;14881;48.092;11.574;2023-03-16T15:44:52;95452.00;;;10.45;88.56
27429;BME280;14881;48.092;11.574;2023-03-16T15:47:19;95448.16;;;10.51;84.60
27429;BME280;14881;48.092;11.574;2023-03-16T15:50:00;95439.09;;;10.37;80.07
27429;BME280;14881;48.092;11.574;2023-03-16T15:53:06;95442.91;;;10.36;81.32
27429;BME280;14881;48.092;11.574;2023-03-16T15:56:08;95435.94;;;10.25;89.09
27429;BME280;14881;48.092;11.574;2023-03-16T15:58:45;95421.75;;;10.33;80.60
27429;BME280;14881;48.092;11.574;2023-03-16T16:07:19;95417.75;;;10.25;81.86
27429;BME280;14881;48.092;11.574;2023-03-16T16:09:59;95409.75;;;10.10;87.03
27429;BME280;14881;48.092;11.574;2023-03-16T16:13:10;95409.63;;;9.96;84.83
27429;BME280;14881;48.092;11.574;2023-03-16T16:19:15;95407.91;;;9.82;96.59
27429;BME280;14881;48.092;11.574;2023-03-16T16:22:55;95407.91;;;9.82;92.79
27429;BME280;14881;48.092;11.574;2023-03-16T16:25:53;95417.13;;;10.04;91.18
27429;BME280;14881;48.092;11.574;2023-03-16T16:29:05;95405.06;;;9.92;98.71
27429;BME280;14881;48.092;11.574;2023-03-16T16:31:51;95418.56;;;9.73;95.13
27429;BME280;14881;48.092;11.574;2023-03-16T16:37:59;95430.47;;;9.48;100.00
27429;BME280;14881;48.092;11.574;2023-03-16T16:40:44;95431.91;;;9.35;100.00
27429;BME280;14881;48.092;11.574;2023-03-16T16:43:33;95435.94;;;9.04;100.00
27429;BME280;14881;48.092;11.574;2023-03-16T16:46:27;95442.81;;;8.86;100.00
27429;BME280;14881;48.092;11.574;2023-03-16T16:49:06;95442.06;;;8.76;100.00
27429;BME280;14881;48.092;11.574;2023-03-16T16:51:43;95438.66;;;8.50;100.00
27429;BME280;14881;48.092;11.574;2023-03-16T16:54:21;95443.09;;;8.25;100.00
27429;BME280;14881;48.092;11.574;2023-03-16T16:57:21;95449.09;;;7.97;100.00
27429;BME280;14881;48.092;11.574;2023-03-16T16:59:59;95440.22;;;7.86;100.00
27429;BME280;14881;48.092;11.574;2023-03-16T17:02:42;95449.72;;;7.63;100.00
27429;BME280;14881;48.092;11.574;2023-03-16T17:08:45;95450.28;;;7.25;100.00
27429;BME280;14881;48.092;11.574;2023-03-16T17:11:58;95451.34;;;6.98;100.00
27429;BME280;14881;48.092;11.574;2023-03-16T17:14:49;95452.63;;;6.76;100.00
27429;BME280;14881;48.092;11.574;2023-03-16T17:17:22;95456.94;;;6.56;100.00
27429;BME280;14881;48.092;11.574;2023-03-16T17:19:59;95456.06;;;6.46;100.00
27429;BME280;14881;48.092;11.574;2023-03-16T17:22:57;95454.34;;;6.24;100.00
27429;BME280;14881;48.092;11.574;2023-03-16T17:25:26;95463.78;;;6.17;100.00
27429;BME280;14881;48.092;11.574;2023-03-16T17:28:18;95458.31;;;6.07;100.00
27429;BME280;14881;48.092;11.574;2023-03-16T17:31:10;95467.63;;;5.84;100.00
27429;BME280;14881;48.092;11.574;2023-03-16T17:33:38;95462.41;;;5.67;100.00
27429;BME280;14881;48.092;11.574;2023-03-16T17:36:34;95459.63;;;5.57;100.00
27429;BME280;14881;48.092;11.574;2023-03-16T17:42:25;95468.66;;;5.41;100.00
27429;BME280;14881;48.092;11.574;2023-03-16T17:44:54;95466.75;;;5.36;100.00
27429;BME280;14881;48.092;11.574;2023-03-16T17:47:24;95464.84;;;5.32;100.00
27429;BME280;14881;48.092;11.574;2023-03-16T17:49:53;95461.53;;;5.24;100.00
27429;BME280;14881;48.092;11.574;2023-03-16T17:52:24;95466.63;;;5.21;100.00
27429;BME280;14881;48.092;11.574;2023-03-16T17:54:52;95463.59;;;5.12;100.00
27429;BME280;14881;48.092;11.574;2023-03-16T17:57:24;95457.47;;;4.90;100.00
27429;BME280;14881;48.092;11.574;2023-03-16T17:59:54;95458.53;;;4.89;100.00
27429;BME280;14881;48.092;11.574;2023-03-16T18:02:37;95461.00;;;4.69;100.00